Time;durP1;ratioP1;P1;durP2;ratioP2;P2;SDS_P1;SDS_P2;PMS_P1;PMS_P2;Temp;Humidity;BMP_temperature;BMP_pressure;BME280_temperature;BME280_humidity;BME280_pressure;Samples;Min_cycle;Max_cycle;Signal;HPM_P1;HPM_P2
2022/12/08 00:00:23;;;;;;;4.22;0.73;;;2.10;99.90;;;;;;6125550;23;20013;-85
2022/12/08 00:02:48;;;;;;;4.97;0.80;;;2.10;99.90;;;;;;6150317;23;20047;-86
2022/12/08 00:10:56;;;;;;;4.20;0.77;;;2.20;99.90;;;;;;6178264;23;20931;-86
2022/12/08 00:13:22;;;;;;;3.65;0.68;;;2.20;99.90;;;;;;6153767;23;20017;-86
2022/12/08 00:15:48;;;;;;;1.55;0.45;;;2.30;99.90;;;;;;6178125;23;20015;-86
2022/12/08 00:18:13;;;;;;;3.38;0.65;;;2.30;99.90;;;;;;6153452;23;20021;-86
2022/12/08 00:20:39;;;;;;;5.82;0.70;;;2.40;99.90;;;;;;6152452;23;20024;-86
2022/12/08 00:23:05;;;;;;;2.70;0.80;;;2.50;99.90;;;;;;6153601;23;20046;-86
2022/12/08 00:25:33;;;;;;;5.63;1.20;;;2.50;99.90;;;;;;6178108;23;20120;-86
2022/12/08 00:27:59;;;;;;;4.90;1.13;;;2.50;99.90;;;;;;6153308;23;20017;-86
2022/12/08 00:30:24;;;;;;;8.70;1.00;;;2.60;99.90;;;;;;6153439;23;20253;-87
2022/12/08 00:32:50;;;;;;;2.85;0.70;;;2.90;99.90;;;;;;6153448;23;20053;-86
2022/12/08 00:35:16;;;;;;;6.25;1.00;;;2.60;99.90;;;;;;6152899;23;20025;-86
2022/12/08 00:37:41;;;;;;;6.22;1.00;;;2.70;99.90;;;;;;6153218;23;20013;-86
2022/12/08 00:40:08;;;;;;;5.63;0.90;;;2.70;99.90;;;;;;6153689;23;20017;-86
2022/12/08 00:42:33;;;;;;;10.57;2.83;;;2.70;99.90;;;;;;6178116;23;20020;-87
2022/12/08 00:44:59;;;;;;;5.35;0.98;;;2.80;99.90;;;;;;6153245;23;20020;-86
2022/12/08 00:47:24;;;;;;;6.90;1.75;;;2.80;99.90;;;;;;6149790;23;20421;-87
2022/12/08 00:49:50;;;;;;;6.07;1.10;;;2.80;99.90;;;;;;6149914;23;20441;-87
2022/12/08 00:52:16;;;;;;;5.47;1.30;;;2.80;99.90;;;;;;6151928;23;20056;-86
2022/12/08 00:54:42;;;;;;;43.95;21.42;;;2.80;99.90;;;;;;6151735;23;20021;-87
2022/12/08 00:57:07;;;;;;;27.20;12.07;;;2.60;99.90;;;;;;6149906;23;20349;-87
2022/12/08 00:59:33;;;;;;;9.82;2.45;;;2.70;99.90;;;;;;6149772;23;20021;-87
2022/12/08 01:01:59;;;;;;;8.05;2.00;;;2.70;99.90;;;;;;6150632;23;20010;-86
2022/12/08 01:04:24;;;;;;;19.65;6.25;;;2.70;99.90;;;;;;6151147;23;20032;-86
2022/12/08 01:06:50;;;;;;;7.82;1.10;;;2.70;99.90;;;;;;6149612;23;20045;-87
2022/12/08 01:09:17;;;;;;;7.80;1.10;;;2.70;99.90;;;;;;6151385;23;20018;-87
2022/12/08 01:11:43;;;;;;;9.40;3.05;;;2.70;99.90;;;;;;6149773;23;20017;-87
2022/12/08 01:14:09;;;;;;;3.85;0.80;;;2.70;99.90;;;;;;6151715;23;20013;-86
2022/12/08 01:16:35;;;;;;;3.38;0.77;;;2.70;99.90;;;;;;6150796;23;20510;-87
2022/12/08 01:19:02;;;;;;;13.30;5.95;;;2.70;99.90;;;;;;6150859;23;20021;-87
2022/12/08 01:21:28;;;;;;;5.75;1.30;;;2.60;99.90;;;;;;6150684;23;20020;-87
2022/12/08 01:23:54;;;;;;;3.35;1.27;;;2.60;99.90;;;;;;6149406;23;20027;-87
2022/12/08 01:26:20;;;;;;;9.98;4.35;;;2.60;99.90;;;;;;6149121;23;20044;-85
2022/12/08 01:28:47;;;;;;;4.82;0.70;;;2.60;99.90;;;;;;6150910;23;20737;-87
2022/12/08 01:31:15;;;;;;;8.90;4.80;;;2.70;99.90;;;;;;6149311;23;20017;-87
2022/12/08 01:33:41;;;;;;;3.63;1.17;;;2.70;99.90;;;;;;6149228;23;20108;-87
2022/12/08 01:36:09;;;;;;;13.38;8.07;;;2.70;99.90;;;;;;6149408;23;20064;-86
2022/12/08 01:38:34;;;;;;;4.88;0.60;;;2.70;99.90;;;;;;6149482;23;20339;-86
2022/12/08 01:41:00;;;;;;;3.08;0.70;;;2.70;99.90;;;;;;6151443;23;20013;-87
2022/12/08 01:44:01;;;;;;;1.27;0.50;;;2.70;99.90;;;;;;6149099;23;20550;-87
2022/12/08 01:46:29;;;;;;;3.92;0.70;;;2.60;99.90;;;;;;6149702;23;20399;-85
2022/12/08 01:49:06;;;;;;;1.75;0.40;;;2.60;99.90;;;;;;6148557;23;20045;-86
2022/12/08 01:51:47;;;;;;;6.55;0.90;;;2.60;99.90;;;;;;6151062;23;20441;-86
2022/12/08 01:54:14;;;;;;;1.70;0.70;;;2.50;99.90;;;;;;6151265;23;20014;-86
2022/12/08 01:56:44;;;;;;;4.25;2.08;;;2.50;99.90;;;;;;6150773;23;20085;-86
2022/12/08 01:59:11;;;;;;;2.45;0.75;;;2.50;99.90;;;;;;6149385;23;20089;-87
2022/12/08 02:01:37;;;;;;;2.33;0.57;;;2.50;99.90;;;;;;6148423;23;20017;-86
2022/12/08 02:04:04;;;;;;;3.78;1.95;;;2.40;99.90;;;;;;6151081;23;20019;-86
2022/12/08 02:06:35;;;;;;;2.78;0.90;;;2.40;99.90;;;;;;6149587;23;20084;-87
2022/12/08 02:09:04;;;;;;;1.55;0.50;;;2.40;99.90;;;;;;6149051;23;20393;-87
2022/12/08 02:11:29;;;;;;;4.25;1.52;;;2.40;99.90;;;;;;6151266;23;20052;-86
2022/12/08 02:13:56;;;;;;;1.65;0.60;;;2.40;99.90;;;;;;6149674;23;20025;-86
2022/12/08 02:16:35;;;;;;;3.05;0.70;;;2.40;99.90;;;;;;6150734;23;20024;-87
2022/12/08 02:19:32;;;;;;;3.00;0.80;;;2.40;99.90;;;;;;6151437;23;20347;-87
2022/12/08 02:22:17;;;;;;;2.75;0.50;;;2.40;99.90;;;;;;6138058;23;20013;-86
2022/12/08 02:25:18;;;;;;;2.15;0.40;;;2.40;99.90;;;;;;6149226;23;20010;-87
2022/12/08 02:28:18;;;;;;;17.27;8.25;;;2.40;99.90;;;;;;6118470;23;20021;-85
2022/12/08 02:30:57;;;;;;;3.78;1.00;;;2.50;99.90;;;;;;6093204;23;20141;-87
2022/12/08 02:33:52;;;;;;;14.05;6.45;;;2.50;99.90;;;;;;6118557;23;20458;-87
2022/12/08 02:36:25;;;;;;;6.63;2.87;;;2.50;99.90;;;;;;6093992;23;20017;-87
2022/12/08 02:39:22;;;;;;;10.07;3.15;;;2.70;99.90;;;;;;6094157;23;20022;-88
2022/12/08 02:42:04;;;;;;;13.30;6.75;;;2.50;99.90;;;;;;6093366;23;20041;-86
2022/12/08 02:44:40;;;;;;;5.75;1.65;;;2.50;99.90;;;;;;6093815;23;20069;-87
2022/12/08 02:47:16;;;;;;;9.90;5.07;;;2.50;99.90;;;;;;6094129;23;20458;-86
2022/12/08 02:49:42;;;;;;;4.57;0.75;;;2.50;99.90;;;;;;6118770;23;20021;-87
2022/12/08 02:52:11;;;;;;;3.10;1.08;;;2.60;99.90;;;;;;6093491;23;20033;-87
2022/12/08 02:54:40;;;;;;;3.20;0.70;;;2.60;99.90;;;;;;6094218;23;20540;-87
2022/12/08 02:57:30;;;;;;;2.20;0.40;;;2.60;99.90;;;;;;6093844;23;20026;-87
2022/12/08 03:00:12;;;;;;;5.10;0.40;;;2.60;99.90;;;;;;6093130;23;20508;-87
2022/12/08 03:02:50;;;;;;;2.53;0.57;;;2.70;99.90;;;;;;6093615;23;20061;-87
2022/12/08 03:05:42;;;;;;;6.95;1.83;;;2.70;99.90;;;;;;6148568;23;20018;-86
2022/12/08 03:08:17;;;;;;;6.85;2.17;;;2.70;99.90;;;;;;6148764;23;20013;-87
2022/12/08 03:10:55;;;;;;;15.45;4.70;;;2.70;99.90;;;;;;6148654;23;20022;-86
2022/12/08 03:13:28;;;;;;;6.57;1.92;;;2.70;99.90;;;;;;6150569;23;20441;-87
2022/12/08 03:15:55;;;;;;;2.73;0.47;;;2.70;99.90;;;;;;6148228;23;20125;-87
2022/12/08 03:18:25;;;;;;;3.38;0.52;;;2.70;99.90;;;;;;6149260;23;20140;-86
2022/12/08 03:20:51;;;;;;;2.47;0.60;;;2.70;99.90;;;;;;6148747;23;20369;-86
2022/12/08 03:23:19;;;;;;;4.53;0.40;;;2.70;99.90;;;;;;6150936;23;20021;-86
2022/12/08 03:26:09;;;;;;;5.22;0.60;;;2.60;99.90;;;;;;6151290;23;20009;-86
2022/12/08 03:28:35;;;;;;;3.30;0.57;;;2.60;99.90;;;;;;6137847;23;20024;-86
2022/12/08 03:31:05;;;;;;;1.95;0.45;;;2.60;99.90;;;;;;6151097;23;20056;-87
2022/12/08 03:33:36;;;;;;;1.13;0.30;;;2.60;99.90;;;;;;6173602;23;20024;-86
2022/12/08 03:36:06;;;;;;;4.07;0.50;;;2.60;99.90;;;;;;6124154;23;20017;-87
2022/12/08 03:38:40;;;;;;;2.90;0.40;;;2.60;99.90;;;;;;6149041;23;20016;-87
2022/12/08 03:41:18;;;;;;;3.33;0.47;;;2.60;99.90;;;;;;6152177;23;20028;-87
2022/12/08 03:43:56;;;;;;;1.67;0.50;;;2.60;99.90;;;;;;6150127;23;20119;-87
2022/12/08 03:46:23;;;;;;;1.98;0.28;;;2.60;99.90;;;;;;6152643;23;20080;-85
2022/12/08 03:48:49;;;;;;;3.63;0.40;;;2.60;99.90;;;;;;6152286;23;20013;-86
2022/12/08 03:51:15;;;;;;;2.40;0.88;;;2.50;99.90;;;;;;6150329;23;20024;-86
2022/12/08 03:53:41;;;;;;;3.83;0.30;;;2.50;99.90;;;;;;6152350;23;20024;-87
2022/12/08 03:56:20;;;;;;;1.17;0.30;;;2.40;99.90;;;;;;6151818;23;20198;-85
2022/12/08 03:58:46;;;;;;;4.60;0.47;;;2.40;99.90;;;;;;6150139;23;20021;-87
2022/12/08 04:01:12;;;;;;;2.75;0.25;;;2.40;99.90;;;;;;6152510;23;20009;-87
2022/12/08 04:03:37;;;;;;;3.13;0.55;;;2.40;99.90;;;;;;6150544;23;20433;-87
2022/12/08 04:06:03;;;;;;;0.73;0.20;;;2.40;99.90;;;;;;6149796;23;20020;-86
2022/12/08 04:08:29;;;;;;;1.45;0.28;;;2.40;99.90;;;;;;6150235;23;20084;-86
2022/12/08 04:10:55;;;;;;;2.38;0.20;;;2.40;99.90;;;;;;6150308;23;20053;-86
2022/12/08 04:13:20;;;;;;;1.50;0.30;;;2.40;99.90;;;;;;6124669;23;20124;-87
2022/12/08 04:15:47;;;;;;;2.20;0.40;;;2.30;99.90;;;;;;6151897;23;20017;-86
2022/12/08 04:18:13;;;;;;;0.95;0.20;;;2.30;99.90;;;;;;6149931;23;20494;-86
2022/12/08 04:20:43;;;;;;;1.23;0.10;;;2.30;99.90;;;;;;6149795;23;20020;-87
2022/12/08 04:23:10;;;;;;;3.35;0.20;;;2.40;99.90;;;;;;6151944;23;20048;-86
2022/12/08 04:25:36;;;;;;;2.00;0.20;;;2.30;99.90;;;;;;6151874;23;20088;-86
2022/12/08 04:28:03;;;;;;;0.80;0.20;;;2.30;99.90;;;;;;6149808;23;20056;-85
2022/12/08 04:30:28;;;;;;;3.58;0.45;;;2.30;99.90;;;;;;6151851;23;20014;-86
2022/12/08 04:32:54;;;;;;;1.50;0.17;;;2.30;99.90;;;;;;6149589;23;20067;-86
2022/12/08 04:35:20;;;;;;;0.68;0.20;;;2.20;99.90;;;;;;6151094;23;20456;-86
2022/12/08 04:37:46;;;;;;;1.17;0.20;;;2.20;99.90;;;;;;6149569;23;20014;-86
2022/12/08 04:40:12;;;;;;;1.20;0.30;;;2.20;99.90;;;;;;6151229;23;20014;-87
2022/12/08 04:42:37;;;;;;;0.40;0.20;;;2.20;99.90;;;;;;6149025;23;20445;-86
2022/12/08 04:45:04;;;;;;;0.32;0.15;;;2.30;99.90;;;;;;6151893;23;20020;-87
2022/12/08 04:47:30;;;;;;;1.40;0.30;;;2.20;99.90;;;;;;6150043;23;20430;-87
2022/12/08 04:49:56;;;;;;;1.73;0.30;;;2.30;99.90;;;;;;6151548;23;20337;-86
2022/12/08 04:52:21;;;;;;;2.45;0.30;;;2.30;99.90;;;;;;6151473;23;20025;-86
2022/12/08 04:54:47;;;;;;;0.30;0.20;;;2.30;99.90;;;;;;6151611;23;20088;-87
2022/12/08 04:57:13;;;;;;;4.63;0.35;;;2.30;99.90;;;;;;6149309;23;20344;-86
2022/12/08 04:59:38;;;;;;;1.33;0.35;;;2.30;99.90;;;;;;6125054;23;20017;-86
2022/12/08 05:02:04;;;;;;;1.38;0.30;;;2.30;99.90;;;;;;6151393;23;20045;-87
2022/12/08 05:04:30;;;;;;;0.57;0.20;;;2.30;99.90;;;;;;6149397;23;20049;-86
2022/12/08 05:06:55;;;;;;;0.55;0.20;;;2.30;99.90;;;;;;6151739;23;20017;-86
2022/12/08 05:09:21;;;;;;;1.77;0.30;;;2.30;99.90;;;;;;6125339;23;20028;-87
2022/12/08 05:11:47;;;;;;;1.23;0.30;;;2.30;99.90;;;;;;6149475;23;20425;-87
2022/12/08 05:14:14;;;;;;;3.00;0.40;;;2.30;99.90;;;;;;6149680;23;20044;-87
2022/12/08 05:16:40;;;;;;;1.95;0.40;;;2.30;99.90;;;;;;6149989;23;20081;-87
2022/12/08 05:19:06;;;;;;;2.85;0.30;;;2.30;99.90;;;;;;6149812;23;20333;-87
2022/12/08 05:21:32;;;;;;;2.20;0.20;;;2.30;99.90;;;;;;6151029;23;20028;-85
2022/12/08 05:23:57;;;;;;;0.70;0.30;;;2.30;99.90;;;;;;6151227;23;20009;-86
2022/12/08 05:26:23;;;;;;;2.70;0.30;;;2.40;99.90;;;;;;6124360;23;20433;-86
2022/12/08 05:28:49;;;;;;;1.80;0.20;;;2.40;99.90;;;;;;6150574;23;20021;-86
2022/12/08 05:31:16;;;;;;;1.13;0.32;;;2.40;99.90;;;;;;6148962;23;20025;-86
2022/12/08 05:33:43;;;;;;;1.75;0.20;;;2.40;99.90;;;;;;6174114;23;20049;-87
2022/12/08 05:36:12;;;;;;;0.45;0.20;;;2.50;99.90;;;;;;6149209;23;20017;-87
2022/12/08 05:38:38;;;;;;;1.85;0.30;;;2.40;99.90;;;;;;6151190;23;20053;-87
2022/12/08 05:41:07;;;;;;;1.83;0.35;;;2.40;99.90;;;;;;6150738;23;20045;-87
2022/12/08 05:43:33;;;;;;;1.40;0.25;;;2.40;99.90;;;;;;6150983;23;20338;-86
2022/12/08 05:45:59;;;;;;;0.88;0.30;;;2.40;99.90;;;;;;6149619;23;20085;-86
2022/12/08 05:48:25;;;;;;;2.45;0.30;;;2.40;99.90;;;;;;6150946;23;20017;-86
2022/12/08 05:50:51;;;;;;;1.42;0.30;;;2.40;99.90;;;;;;6149056;23;20517;-87
2022/12/08 05:53:18;;;;;;;1.13;0.50;;;2.40;99.90;;;;;;6148415;23;20500;-87
2022/12/08 05:55:44;;;;;;;1.33;0.30;;;2.30;99.90;;;;;;6149153;23;20017;-87
2022/12/08 05:58:16;;;;;;;1.88;0.30;;;2.30;99.90;;;;;;6149079;23;20022;-86
2022/12/08 06:00:42;;;;;;;1.75;0.40;;;2.30;99.90;;;;;;6148613;23;20202;-87
2022/12/08 06:03:11;;;;;;;1.30;0.20;;;2.30;99.90;;;;;;6148594;23;20353;-87
2022/12/08 06:05:37;;;;;;;1.00;0.20;;;2.30;99.90;;;;;;6149210;23;20009;-86
2022/12/08 06:08:03;;;;;;;1.23;0.40;;;2.30;99.90;;;;;;6149882;23;20089;-86
2022/12/08 06:10:29;;;;;;;1.73;0.30;;;2.30;99.90;;;;;;6152248;23;20009;-84
2022/12/08 06:12:54;;;;;;;3.10;0.40;;;2.30;99.90;;;;;;6150687;23;20071;-87
2022/12/08 06:15:20;;;;;;;1.75;0.20;;;2.30;99.90;;;;;;6150292;23;20014;-86
2022/12/08 06:17:46;;;;;;;4.10;0.40;;;2.30;99.90;;;;;;6149199;23;20024;-86
2022/12/08 06:20:11;;;;;;;1.08;0.28;;;2.20;99.90;;;;;;6148889;23;20017;-86
2022/12/08 06:22:37;;;;;;;2.15;0.30;;;2.20;99.90;;;;;;6150420;23;20010;-86
2022/12/08 06:25:04;;;;;;;1.27;0.30;;;2.20;99.90;;;;;;6149732;23;20434;-86
2022/12/08 06:27:31;;;;;;;1.52;0.50;;;2.20;99.90;;;;;;6150416;23;20013;-86
2022/12/08 06:29:57;;;;;;;2.25;0.30;;;2.10;99.90;;;;;;6149475;23;20029;-85
2022/12/08 06:32:23;;;;;;;2.50;0.22;;;2.10;99.90;;;;;;6149951;23;20521;-85
2022/12/08 06:34:49;;;;;;;1.17;0.40;;;2.10;99.90;;;;;;6149849;23;20010;-86
2022/12/08 06:37:14;;;;;;;1.30;0.40;;;2.10;99.90;;;;;;6148538;23;20609;-85
2022/12/08 06:39:40;;;;;;;1.00;0.20;;;2.10;99.90;;;;;;6151228;23;20460;-85
2022/12/08 06:44:50;;;;;;;2.63;0.40;;;2.10;99.90;;;;;;6149288;23;20341;-86
2022/12/08 06:47:16;;;;;;;1.98;0.52;;;2.10;99.90;;;;;;6150418;23;20123;-86
2022/12/08 06:49:42;;;;;;;1.40;0.30;;;2.10;99.90;;;;;;6150938;23;20014;-84
2022/12/08 06:52:07;;;;;;;2.42;0.60;;;2.10;99.90;;;;;;6150798;23;20013;-86
2022/12/08 06:54:33;;;;;;;1.35;0.30;;;2.10;99.90;;;;;;6151586;23;20017;-86
2022/12/08 06:56:59;;;;;;;3.00;0.30;;;2.10;99.90;;;;;;6150607;23;20010;-85
2022/12/08 06:59:25;;;;;;;1.38;0.30;;;2.10;99.90;;;;;;6150754;23;20022;-86
2022/12/08 07:01:51;;;;;;;1.73;0.30;;;2.10;99.90;;;;;;6125299;23;20014;-85
2022/12/08 07:04:17;;;;;;;2.67;0.52;;;2.00;99.90;;;;;;6150115;23;20022;-86
2022/12/08 07:06:42;;;;;;;2.75;0.98;;;2.00;99.90;;;;;;6149169;23;20084;-85
2022/12/08 07:09:08;;;;;;;1.55;0.52;;;1.90;99.90;;;;;;6151441;23;20014;-85
2022/12/08 07:11:34;;;;;;;0.77;0.40;;;1.90;99.90;;;;;;6149391;23;20322;-85
2022/12/08 07:13:59;;;;;;;0.85;0.32;;;1.80;99.90;;;;;;6151486;23;20018;-85
2022/12/08 07:16:25;;;;;;;2.78;0.52;;;1.80;99.90;;;;;;6151496;23;20029;-85
2022/12/08 07:18:51;;;;;;;1.38;0.60;;;1.70;99.90;;;;;;6150268;23;20107;-84
2022/12/08 07:21:17;;;;;;;5.47;0.82;;;1.70;99.90;;;;;;6152821;23;20372;-85
2022/12/08 07:23:45;;;;;;;3.50;0.70;;;1.70;99.90;;;;;;6150474;23;20718;-85
2022/12/08 07:26:12;;;;;;;2.55;0.60;;;1.60;99.90;;;;;;6152798;23;20024;-86
2022/12/08 07:28:40;;;;;;;4.35;0.80;;;1.60;99.90;;;;;;6126424;23;20022;-85
2022/12/08 07:31:07;;;;;;;4.05;0.90;;;1.50;99.90;;;;;;6150680;23;20022;-84
2022/12/08 07:33:34;;;;;;;3.60;1.00;;;1.50;99.90;;;;;;6150878;23;20091;-85
2022/12/08 07:36:02;;;;;;;2.28;0.80;;;2.20;99.90;;;;;;6150112;23;20021;-85
2022/12/08 07:38:29;;;;;;;3.17;0.88;;;1.40;99.90;;;;;;6151538;23;20068;-84
2022/12/08 07:40:55;;;;;;;4.72;1.02;;;1.40;99.90;;;;;;6150378;23;20005;-84
2022/12/08 07:43:22;;;;;;;4.80;1.10;;;1.40;99.90;;;;;;6150457;23;20334;-84
2022/12/08 07:45:48;;;;;;;3.97;1.15;;;1.40;99.90;;;;;;6150233;23;20017;-85
2022/12/08 07:48:14;;;;;;;4.18;1.05;;;1.30;99.90;;;;;;6151125;23;20018;-85
2022/12/08 07:50:40;;;;;;;2.70;0.90;;;1.30;99.90;;;;;;6151623;23;20361;-84
2022/12/08 07:53:06;;;;;;;2.80;1.13;;;1.30;99.90;;;;;;6149204;23;20346;-86
2022/12/08 07:55:32;;;;;;;5.80;1.25;;;1.30;99.90;;;;;;6152262;23;20453;-83
2022/12/08 07:57:58;;;;;;;4.65;1.40;;;1.30;99.90;;;;;;6151873;23;20089;-83
2022/12/08 08:00:24;;;;;;;5.40;1.17;;;1.50;99.90;;;;;;6150758;23;20045;-83
2022/12/08 08:02:49;;;;;;;4.60;1.40;;;1.30;99.90;;;;;;6150838;23;20073;-87
2022/12/08 08:05:15;;;;;;;7.40;1.27;;;1.30;99.90;;;;;;6151700;23;20021;-84
2022/12/08 08:07:42;;;;;;;3.35;1.00;;;1.30;99.90;;;;;;6150026;23;20413;-84
2022/12/08 08:10:09;;;;;;;4.40;1.58;;;1.20;99.90;;;;;;6152645;23;20118;-84
2022/12/08 08:12:35;;;;;;;4.15;1.42;;;1.20;99.90;;;;;;6150369;23;20018;-84
2022/12/08 08:15:02;;;;;;;4.38;1.30;;;1.20;99.90;;;;;;6151585;23;20603;-84
2022/12/08 08:17:28;;;;;;;2.50;1.08;;;1.20;99.90;;;;;;6152641;23;20014;-84
2022/12/08 08:19:53;;;;;;;5.43;1.27;;;1.20;99.90;;;;;;6152165;23;20329;-85
2022/12/08 08:22:19;;;;;;;2.80;1.02;;;1.60;99.90;;;;;;6150415;23;20480;-84
2022/12/08 08:24:45;;;;;;;3.28;1.13;;;1.20;99.90;;;;;;6148692;23;20009;-84
2022/12/08 08:27:11;;;;;;;6.72;1.25;;;1.20;99.90;;;;;;6147726;23;20473;-85
2022/12/08 08:29:37;;;;;;;3.00;1.00;;;1.20;99.90;;;;;;6150095;23;20025;-84
2022/12/08 08:32:03;;;;;;;4.47;1.27;;;1.20;99.90;;;;;;6150429;23;20045;-84
2022/12/08 08:34:28;;;;;;;3.92;1.10;;;1.20;99.90;;;;;;6151218;23;20040;-84
2022/12/08 08:36:54;;;;;;;2.63;1.10;;;1.10;99.90;;;;;;6150742;23;20068;-84
2022/12/08 08:39:19;;;;;;;3.28;1.27;;;1.20;99.90;;;;;;6152546;23;20014;-84
2022/12/08 08:41:45;;;;;;;2.30;1.10;;;1.10;99.90;;;;;;6150625;23;20386;-84
2022/12/08 08:44:13;;;;;;;3.58;1.00;;;1.20;99.90;;;;;;6152577;23;20024;-84
2022/12/08 08:46:39;;;;;;;4.35;1.17;;;1.10;99.90;;;;;;6150660;23;20048;-84
2022/12/08 08:49:05;;;;;;;3.72;1.13;;;1.10;99.90;;;;;;6152367;23;20017;-85
2022/12/08 08:51:30;;;;;;;4.70;1.20;;;1.10;99.90;;;;;;6151578;23;20017;-84
2022/12/08 08:53:57;;;;;;;5.97;1.20;;;1.10;99.90;;;;;;6152119;23;20017;-84
2022/12/08 08:56:23;;;;;;;4.65;0.80;;;1.20;99.90;;;;;;6152846;23;20014;-84
2022/12/08 08:58:50;;;;;;;3.80;1.20;;;1.30;99.90;;;;;;6175506;23;20010;-84
2022/12/08 09:01:19;;;;;;;5.35;1.83;;;1.40;99.90;;;;;;6150810;23;20051;-84
2022/12/08 09:03:45;;;;;;;10.93;1.35;;;1.60;99.90;;;;;;6152096;23;20013;-84
2022/12/08 09:06:12;;;;;;;2.92;1.60;;;1.60;99.90;;;;;;6152551;23;20044;-83
2022/12/08 09:08:38;;;;;;;4.22;1.25;;;2.20;99.90;;;;;;6151447;23;20101;-84
2022/12/08 09:11:03;;;;;;;6.22;1.17;;;1.80;99.90;;;;;;6149536;23;20041;-83
2022/12/08 09:13:29;;;;;;;5.75;0.93;;;1.80;99.90;;;;;;6151137;23;20010;-83
2022/12/08 09:15:55;;;;;;;4.63;1.08;;;1.80;99.90;;;;;;6150474;23;20338;-84
2022/12/08 09:18:20;;;;;;;6.63;1.45;;;1.70;99.90;;;;;;6151277;23;20117;-83
2022/12/08 09:20:46;;;;;;;9.18;1.00;;;1.70;99.90;;;;;;6150215;23;20017;-84
2022/12/08 09:23:12;;;;;;;4.22;1.00;;;1.70;99.90;;;;;;6149990;23;20029;-84
2022/12/08 09:25:37;;;;;;;7.10;2.20;;;1.70;99.90;;;;;;6150201;23;20018;-84
2022/12/08 09:28:03;;;;;;;4.95;1.48;;;1.70;99.90;;;;;;6149771;23;20097;-84
2022/12/08 09:30:29;;;;;;;5.90;1.38;;;1.80;99.90;;;;;;6149796;23;20024;-83
2022/12/08 09:32:54;;;;;;;5.30;1.20;;;1.80;99.90;;;;;;6124794;23;20017;-84
2022/12/08 09:35:20;;;;;;;3.53;1.10;;;1.90;99.90;;;;;;6150096;23;20069;-84
2022/12/08 09:37:46;;;;;;;5.28;1.40;;;2.00;99.90;;;;;;6151736;23;20108;-84
2022/12/08 09:40:17;;;;;;;4.82;1.35;;;2.10;99.90;;;;;;6151819;23;20017;-84
2022/12/08 09:43:03;;;;;;;4.65;1.65;;;2.20;99.90;;;;;;6151492;23;20021;-83
2022/12/08 09:45:34;;;;;;;5.18;1.25;;;2.30;99.90;;;;;;6151805;23;20013;-84
2022/12/08 09:48:10;;;;;;;5.03;1.38;;;2.40;99.90;;;;;;6150348;23;20028;-84
2022/12/08 09:50:56;;;;;;;3.85;1.20;;;2.60;99.90;;;;;;6149968;23;20021;-84
2022/12/08 09:53:34;;;;;;;4.53;1.42;;;2.70;99.90;;;;;;6149524;23;20119;-84
2022/12/08 09:56:21;;;;;;;3.70;0.85;;;2.70;99.90;;;;;;6151058;23;20010;-84
2022/12/08 09:59:10;;;;;;;5.45;1.10;;;2.70;99.90;;;;;;6151786;23;20421;-84
2022/12/08 10:01:40;;;;;;;2.42;1.00;;;2.80;99.90;;;;;;6147869;23;20101;-84
2022/12/08 10:04:37;;;;;;;4.75;0.98;;;2.80;99.90;;;;;;6149990;23;20224;-83
2022/12/08 10:07:06;;;;;;;6.53;1.30;;;2.80;99.90;;;;;;6149080;23;20010;-84
2022/12/08 10:09:58;;;;;;;5.78;1.92;;;2.80;99.90;;;;;;6124696;23;20053;-83
2022/12/08 10:12:31;;;;;;;6.55;1.25;;;2.80;99.90;;;;;;6125272;23;20017;-84
2022/12/08 10:15:25;;;;;;;9.85;1.20;;;2.90;99.90;;;;;;6148441;23;20021;-85
2022/12/08 10:17:53;;;;;;;6.70;2.03;;;2.90;99.90;;;;;;6149208;23;20017;-84
2022/12/08 10:20:25;;;;;;;5.55;1.23;;;2.90;99.90;;;;;;6149214;23;20021;-84
2022/12/08 10:23:18;;;;;;;2.78;0.90;;;3.00;99.90;;;;;;6151520;23;20394;-84
2022/12/08 10:25:46;;;;;;;11.18;4.00;;;3.00;99.90;;;;;;6146953;23;20496;-84
2022/12/08 10:28:12;;;;;;;17.45;15.60;;;3.10;99.90;;;;;;6124914;23;20085;-83
2022/12/08 10:30:38;;;;;;;31.17;27.88;;;3.10;99.90;;;;;;6148301;23;20014;-84
2022/12/08 10:33:04;;;;;;;7.70;2.55;;;3.20;99.90;;;;;;6149644;23;20018;-83
2022/12/08 10:35:42;;;;;;;15.48;7.95;;;3.30;99.90;;;;;;6151237;23;20010;-84
2022/12/08 10:38:22;;;;;;;6.07;1.40;;;3.40;99.90;;;;;;6151343;23;20020;-84
2022/12/08 10:40:50;;;;;;;7.65;3.20;;;3.40;99.90;;;;;;6149452;23;20437;-84
2022/12/08 10:43:23;;;;;;;18.00;8.18;;;3.60;99.90;;;;;;6149222;23;20021;-83
2022/12/08 10:45:49;;;;;;;43.35;19.75;;;3.70;99.90;;;;;;6149292;23;20429;-84
2022/12/08 10:48:21;;;;;;;16.08;6.45;;;3.90;99.90;;;;;;6125618;23;20429;-85
2022/12/08 10:50:54;;;;;;;8.30;1.80;;;4.10;99.90;;;;;;6153017;23;20017;-87
2022/12/08 10:53:24;;;;;;;8.60;1.58;;;4.20;99.90;;;;;;6154951;23;20464;-84
2022/12/08 10:56:02;;;;;;;16.75;7.28;;;4.40;99.90;;;;;;6154336;23;20085;-86
2022/12/08 10:58:39;;;;;;;11.55;3.17;;;4.50;99.90;;;;;;6151936;23;20388;-85
2022/12/08 11:01:24;;;;;;;14.40;4.60;;;4.60;99.90;;;;;;6155068;23;20013;-86
2022/12/08 11:03:59;;;;;;;13.45;4.72;;;4.60;99.90;;;;;;6152424;23;20437;-86
2022/12/08 11:06:28;;;;;;;16.88;7.07;;;4.60;99.90;;;;;;6127883;23;20014;-86
2022/12/08 11:09:06;;;;;;;6.43;1.70;;;4.60;99.90;;;;;;6152509;23;20022;-86
2022/12/08 11:11:50;;;;;;;6.57;1.60;;;4.60;99.90;;;;;;6151923;23;20461;-86
2022/12/08 11:14:43;;;;;;;7.32;1.08;;;4.60;99.90;;;;;;6153456;23;20080;-86
2022/12/08 11:17:14;;;;;;;5.45;1.20;;;4.60;99.90;;;;;;6152551;23;20337;-86
2022/12/08 11:19:42;;;;;;;7.05;1.15;;;4.70;99.90;;;;;;6153794;23;20013;-86
2022/12/08 11:22:28;;;;;;;4.00;1.20;;;4.70;99.90;;;;;;6154024;23;20009;-86
2022/12/08 11:25:06;;;;;;;11.18;4.15;;;4.60;99.90;;;;;;6153477;23;20013;-85
2022/12/08 11:27:35;;;;;;;3.28;0.90;;;4.60;99.90;;;;;;6150918;23;20025;-85
2022/12/08 11:30:02;;;;;;;12.88;5.43;;;4.50;99.90;;;;;;6150878;23;20075;-85
2022/12/08 11:32:27;;;;;;;6.93;1.15;;;4.50;99.90;;;;;;6153929;23;20029;-85
2022/12/08 11:35:04;;;;;;;10.57;5.18;;;4.60;99.90;;;;;;6153549;23;20041;-85
2022/12/08 11:37:38;;;;;;;5.28;1.77;;;4.60;99.90;;;;;;6152620;23;20021;-85
2022/12/08 11:40:13;;;;;;;;;;;4.60;99.90;;;;;;6153664;23;20045;-85
2022/12/08 11:43:14;;;;;;;30.63;17.58;;;4.70;99.90;;;;;;6153255;23;19916;-85
2022/12/08 11:45:40;;;;;;;13.27;8.43;;;4.70;99.90;;;;;;6152301;23;20013;-85
2022/12/08 11:48:18;;;;;;;9.00;5.32;;;4.70;99.90;;;;;;6152660;23;20024;-85
2022/12/08 11:50:52;;;;;;;4.93;1.45;;;4.80;99.90;;;;;;6154214;23;20045;-86
2022/12/08 11:53:56;;;;;;;6.80;2.30;;;4.80;99.90;;;;;;6157172;23;20045;-85
2022/12/08 11:56:31;;;;;;;5.38;1.88;;;4.80;99.90;;;;;;6124063;23;20014;-83
2022/12/08 11:59:00;;;;;;;4.32;2.30;;;4.80;99.90;;;;;;6101418;23;20564;-85
2022/12/08 12:01:26;;;;;;;2.80;0.90;;;4.90;99.90;;;;;;6125108;23;20486;-86
2022/12/08 12:03:58;;;;;;;6.93;1.50;;;4.90;99.90;;;;;;6075601;23;20058;-85
2022/12/08 12:07:06;;;;;;;8.35;1.58;;;5.00;99.90;;;;;;6098978;23;20104;-86
2022/12/08 12:09:45;;;;;;;6.80;2.55;;;5.00;99.90;;;;;;6097081;23;20085;-85
2022/12/08 12:12:17;;;;;;;4.18;0.82;;;5.10;99.90;;;;;;6122579;23;20469;-86
2022/12/08 12:15:02;;;;;;;3.72;0.63;;;5.10;99.90;;;;;;6124077;23;20018;-85
2022/12/08 12:17:43;;;;;;;5.50;0.70;;;5.20;99.90;;;;;;6124093;23;20065;-86
2022/12/08 12:20:24;;;;;;;7.15;0.95;;;5.30;99.90;;;;;;6070948;23;20021;-86
2022/12/08 12:22:59;;;;;;;2.88;0.70;;;5.30;99.90;;;;;;6095436;23;20014;-86
2022/12/08 12:25:26;;;;;;;4.35;1.08;;;5.40;99.90;;;;;;6095112;23;20018;-85
2022/12/08 12:27:56;;;;;;;4.55;0.90;;;5.60;99.90;;;;;;6095581;23;20028;-85
2022/12/08 12:30:27;;;;;;;5.72;1.42;;;5.60;99.90;;;;;;6116849;23;20540;-86
2022/12/08 12:32:59;;;;;;;14.40;5.28;;;5.50;99.90;;;;;;6137665;23;20436;-85
2022/12/08 12:35:29;;;;;;;77.90;28.23;;;5.50;99.90;;;;;;6152703;23;20456;-86
2022/12/08 12:37:59;;;;;;;36.92;13.02;;;5.50;99.90;;;;;;6153147;23;20014;-85
2022/12/08 12:40:27;;;;;;;50.00;17.00;;;5.50;99.90;;;;;;6151733;23;20445;-85
2022/12/08 12:42:56;;;;;;;114.50;33.85;;;5.40;99.90;;;;;;6152164;23;20018;-85
2022/12/08 12:45:32;;;;;;;15.05;5.03;;;5.30;99.90;;;;;;6149235;23;20348;-84
2022/12/08 12:47:58;;;;;;;57.75;20.58;;;5.10;99.90;;;;;;6155912;23;20341;-86
2022/12/08 12:50:33;;;;;;;35.28;13.25;;;4.90;99.90;;;;;;6153205;23;20017;-85
2022/12/08 12:53:04;;;;;;;15.88;5.65;;;4.80;99.90;;;;;;6154365;23;20191;-84
2022/12/08 12:55:57;;;;;;;39.92;17.65;;;4.60;99.90;;;;;;6151322;23;20029;-85
2022/12/08 12:58:29;;;;;;;23.25;12.90;;;4.50;99.90;;;;;;6152008;23;20049;-82
2022/12/08 13:01:13;;;;;;;17.42;9.20;;;4.40;99.90;;;;;;6127032;23;20044;-82
2022/12/08 13:04:01;;;;;;;14.68;7.85;;;4.30;99.90;;;;;;6126708;23;20089;-82
2022/12/08 13:06:40;;;;;;;7.55;4.65;;;4.20;99.90;;;;;;6153309;23;20018;-82
2022/12/08 13:09:27;;;;;;;8.48;2.15;;;4.20;99.90;;;;;;6152634;23;20021;-81
2022/12/08 13:11:57;;;;;;;4.50;1.33;;;4.10;99.90;;;;;;6149917;23;20500;-81
2022/12/08 13:14:29;;;;;;;9.15;1.42;;;4.10;99.90;;;;;;6152568;23;20329;-83
2022/12/08 13:16:58;;;;;;;4.75;0.95;;;4.30;99.90;;;;;;6151792;23;20017;-83
2022/12/08 13:19:28;;;;;;;3.05;0.77;;;4.20;99.90;;;;;;6149718;23;20445;-83